Warner Springs, California
Current Conditions -  °F | °C
As of 4:53 PM on Saturday 22 Nov 2014 (Local Time) from KRNM Reporting Station
Clear Clear  
Wind Chill: 59°   Ceiling: Unl
Heat Index: 59°   Visibility: 10mi
Dew Point: 45°   Wind: 6mph
Humidity: 60%   Direction: 250°WSW
Pressure: 30.04"   Gusts: NA
Location:  33.28°N, 116.64°W
Report Text: KRNM 230053Z 25005KT 10SM CLR 15/07 A3004 RMK AO2 SLP169 T01500072 $
Loading
Personal Weather Stations






























Interactive Weather Map New forecast layout! Learn more

10-Day Weather Forecast

Advertisements
Track Severe Weather on mobile